sensor_id;sensor_type;location;lat;lon;timestamp;pressure;altitude;pressure_sealevel;temperature;humidity
39823;BME280;25499;53.958;10.970;2023-03-12T06:59:33;100949.81;;;-0.46;100.00
39823;BME280;25499;53.958;10.970;2023-03-12T07:02:05;100957.44;;;-0.28;100.00
39823;BME280;25499;53.958;10.970;2023-03-12T07:07:13;100937.16;;;-0.43;100.00
39823;BME280;25499;53.958;10.970;2023-03-12T07:09:41;100938.84;;;-0.44;100.00
39823;BME280;25499;53.958;10.970;2023-03-12T07:12:07;100929.84;;;-0.35;100.00
39823;BME280;25499;53.958;10.970;2023-03-12T07:14:32;100940.88;;;-0.17;100.00
39823;BME280;25499;53.958;10.970;2023-03-12T07:16:58;100933.00;;;-0.22;100.00
39823;BME280;25499;53.958;10.970;2023-03-12T07:19:26;100927.34;;;-0.34;100.00
39823;BME280;25499;53.958;10.970;2023-03-12T07:21:53;100927.41;;;-0.32;100.00
39823;BME280;25499;53.958;10.970;2023-03-12T07:24:19;100922.81;;;-0.40;100.00
39823;BME280;25499;53.958;10.970;2023-03-12T07:26:44;100929.28;;;-0.28;100.00
39823;BME280;25499;53.958;10.970;2023-03-12T07:29:10;100924.50;;;-0.40;100.00
39823;BME280;25499;53.958;10.970;2023-03-12T07:31:35;100922.91;;;-0.38;100.00
39823;BME280;25499;53.958;10.970;2023-03-12T07:34:01;100929.00;;;-0.34;100.00
39823;BME280;25499;53.958;10.970;2023-03-12T07:36:27;100934.66;;;-0.22;100.00
39823;BME280;25499;53.958;10.970;2023-03-12T07:38:54;100932.66;;;-0.29;100.00
39823;BME280;25499;53.958;10.970;2023-03-12T07:41:19;100928.28;;;-0.32;100.00
39823;BME280;25499;53.958;10.970;2023-03-12T07:43:45;100932.44;;;-0.14;100.00
39823;BME280;25499;53.958;10.970;2023-03-12T07:46:10;100937.56;;;-0.14;100.00
39823;BME280;25499;53.958;10.970;2023-03-12T07:48:36;100937.69;;;-0.11;100.00
39823;BME280;25499;53.958;10.970;2023-03-12T07:51:01;100931.44;;;-0.18;100.00
39823;BME280;25499;53.958;10.970;2023-03-12T07:53:27;100931.72;;;-0.12;100.00
39823;BME280;25499;53.958;10.970;2023-03-12T07:55:53;100928.44;;;-0.29;100.00
39823;BME280;25499;53.958;10.970;2023-03-12T07:58:19;100927.41;;;-0.32;100.00
39823;BME280;25499;53.958;10.970;2023-03-12T08:00:44;100918.94;;;-0.31;100.00
39823;BME280;25499;53.958;10.970;2023-03-12T08:03:10;100924.56;;;-0.19;100.00
39823;BME280;25499;53.958;10.970;2023-03-12T08:05:35;100930.16;;;-0.28;100.00
39823;BME280;25499;53.958;10.970;2023-03-12T08:08:01;100926.31;;;-0.18;100.00
39823;BME280;25499;53.958;10.970;2023-03-12T08:10:27;100925.47;;;-0.18;100.00
39823;BME280;25499;53.958;10.970;2023-03-12T08:12:52;100933.66;;;-0.06;100.00
39823;BME280;25499;53.958;10.970;2023-03-12T08:15:17;100930.75;;;-0.14;100.00
39823;BME280;25499;53.958;10.970;2023-03-12T08:17:43;100931.44;;;-0.18;100.00
39823;BME280;25499;53.958;10.970;2023-03-12T08:20:09;100942.69;;;-0.14;100.00
39823;BME280;25499;53.958;10.970;2023-03-12T08:22:36;100945.09;;;0.02;100.00
39823;BME280;25499;53.958;10.970;2023-03-12T08:25:02;100948.88;;;0.10;100.00
39823;BME280;25499;53.958;10.970;2023-03-12T08:27:28;100948.59;;;0.04;100.00
39823;BME280;25499;53.958;10.970;2023-03-12T08:29:53;100947.91;;;0.08;100.00
39823;BME280;25499;53.958;10.970;2023-03-12T08:32:19;100957.13;;;0.05;100.00
39823;BME280;25499;53.958;10.970;2023-03-12T08:34:44;100959.69;;;0.24;100.00
39823;BME280;25499;53.958;10.970;2023-03-12T08:37:09;100958.13;;;0.28;100.00
39823;BME280;25499;53.958;10.970;2023-03-12T08:39:35;100952.22;;;0.30;100.00
39823;BME280;25499;53.958;10.970;2023-03-12T08:42:01;100953.19;;;0.32;100.00
39823;BME280;25499;53.958;10.970;2023-03-12T08:44:26;100949.59;;;0.29;100.00
39823;BME280;25499;53.958;10.970;2023-03-12T08:46:52;100943.00;;;0.34;100.00
39823;BME280;25499;53.958;10.970;2023-03-12T08:49:18;100949.06;;;0.36;100.00
39823;BME280;25499;53.958;10.970;2023-03-12T08:51:44;100951.56;;;0.34;100.00
39823;BME280;25499;53.958;10.970;2023-03-12T08:54:10;100948.50;;;0.43;100.00
39823;BME280;25499;53.958;10.970;2023-03-12T08:56:36;100943.66;;;0.49;100.00
39823;BME280;25499;53.958;10.970;2023-03-12T08:59:06;100940.06;;;0.46;100.00
39823;BME280;25499;53.958;10.970;2023-03-12T09:01:31;100933.50;;;0.52;100.00
39823;BME280;25499;53.958;10.970;2023-03-12T09:03:57;100935.13;;;0.50;100.00
39823;BME280;25499;53.958;10.970;2023-03-12T09:06:22;100940.25;;;0.50;100.00
39823;BME280;25499;53.958;10.970;2023-03-12T09:08:48;100937.38;;;0.64;100.00
39823;BME280;25499;53.958;10.970;2023-03-12T09:11:16;100928.06;;;0.66;100.00
39823;BME280;25499;53.958;10.970;2023-03-12T09:13:42;100923.63;;;0.62;100.00
39823;BME280;25499;53.958;10.970;2023-03-12T09:16:08;100912.88;;;0.70;100.00
39823;BME280;25499;53.958;10.970;2023-03-12T09:18:34;100916.69;;;0.59;100.00
39823;BME280;25499;53.958;10.970;2023-03-12T09:21:00;100915.88;;;0.60;100.00
39823;BME280;25499;53.958;10.970;2023-03-12T09:23:26;100907.28;;;0.58;100.00
39823;BME280;25499;53.958;10.970;2023-03-12T09:25:53;100917.47;;;1.00;100.00
39823;BME280;25499;53.958;10.970;2023-03-12T09:28:19;100904.84;;;1.06;100.00
39823;BME280;25499;53.958;10.970;2023-03-12T09:30:45;100897.38;;;1.35;100.00
39823;BME280;25499;53.958;10.970;2023-03-12T09:33:11;100899.50;;;1.47;100.00
39823;BME280;25499;53.958;10.970;2023-03-12T09:35:37;100892.16;;;1.56;100.00
39823;BME280;25499;53.958;10.970;2023-03-12T09:38:03;100882.28;;;1.67;100.00
39823;BME280;25499;53.958;10.970;2023-03-12T09:40:31;100882.56;;;2.00;100.00
39823;BME280;25499;53.958;10.970;2023-03-12T09:43:01;100878.63;;;2.12;100.00
39823;BME280;25499;53.958;10.970;2023-03-12T09:45:31;100860.31;;;2.01;100.00
39823;BME280;25499;53.958;10.970;2023-03-12T09:47:59;100856.88;;;2.00;100.00
39823;BME280;25499;53.958;10.970;2023-03-12T09:50:33;100854.44;;;2.05;100.00
39823;BME280;25499;53.958;10.970;2023-03-12T09:53:39;100843.75;;;2.18;100.00
39823;BME280;25499;53.958;10.970;2023-03-12T09:56:14;100841.28;;;2.21;100.00
39823;BME280;25499;53.958;10.970;2023-03-12T09:58:41;100845.03;;;2.31;100.00
39823;BME280;25499;53.958;10.970;2023-03-12T10:01:37;100836.31;;;2.26;100.00
39823;BME280;25499;53.958;10.970;2023-03-12T10:07:20;100821.13;;;2.34;100.00
39823;BME280;25499;53.958;10.970;2023-03-12T10:16:12;100818.78;;;2.69;100.00
39823;BME280;25499;53.958;10.970;2023-03-12T10:23:40;100810.78;;;2.88;100.00
39823;BME280;25499;53.958;10.970;2023-03-12T10:31:27;100796.88;;;3.44;100.00
39823;BME280;25499;53.958;10.970;2023-03-12T10:33:56;100788.94;;;3.34;100.00
39823;BME280;25499;53.958;10.970;2023-03-12T10:38:57;100779.03;;;3.18;100.00
39823;BME280;25499;53.958;10.970;2023-03-12T10:41:29;100771.41;;;3.21;100.00
39823;BME280;25499;53.958;10.970;2023-03-12T10:44:05;100763.84;;;3.27;100.00
39823;BME280;25499;53.958;10.970;2023-03-12T10:52:20;100749.31;;;3.63;100.00
39823;BME280;25499;53.958;10.970;2023-03-12T10:54:48;100732.63;;;3.47;100.00
39823;BME280;25499;53.958;10.970;2023-03-12T10:57:14;100722.06;;;3.71;100.00
39823;BME280;25499;53.958;10.970;2023-03-12T10:59:42;100712.25;;;3.56;100.00
39823;BME280;25499;53.958;10.970;2023-03-12T11:03:17;100701.50;;;3.72;100.00
39823;BME280;25499;53.958;10.970;2023-03-12T11:07:48;100709.19;;;4.07;99.74
39823;BME280;25499;53.958;10.970;2023-03-12T11:13:03;100688.44;;;4.01;96.32
39823;BME280;25499;53.958;10.970;2023-03-12T11:18:24;100675.09;;;4.21;93.60
39823;BME280;25499;53.958;10.970;2023-03-12T11:20:55;100667.97;;;4.09;92.41
39823;BME280;25499;53.958;10.970;2023-03-12T11:23:25;100658.69;;;4.16;92.08
39823;BME280;25499;53.958;10.970;2023-03-12T11:25:57;100653.78;;;4.26;91.48
39823;BME280;25499;53.958;10.970;2023-03-12T11:28:28;100647.00;;;4.32;89.65
39823;BME280;25499;53.958;10.970;2023-03-12T11:30:56;100635.81;;;4.29;88.68
39823;BME280;25499;53.958;10.970;2023-03-12T11:33:22;100627.72;;;4.13;88.30
39823;BME280;25499;53.958;10.970;2023-03-12T11:36:00;100635.34;;;4.08;89.29
39823;BME280;25499;53.958;10.970;2023-03-12T11:38:40;100646.53;;;4.10;88.84
39823;BME280;25499;53.958;10.970;2023-03-12T11:43:47;100646.72;;;4.18;88.99
39823;BME280;25499;53.958;10.970;2023-03-12T11:46:41;100619.56;;;3.92;86.51
39823;BME280;25499;53.958;10.970;2023-03-12T11:51:58;100618.66;;;3.90;86.08
39823;BME280;25499;53.958;10.970;2023-03-12T11:54:43;100614.53;;;3.99;85.52
39823;BME280;25499;53.958;10.970;2023-03-12T11:59:58;100566.16;;;3.84;82.30
39823;BME280;25499;53.958;10.970;2023-03-12T12:08:11;100580.13;;;3.95;81.56
39823;BME280;25499;53.958;10.970;2023-03-12T12:14:17;100555.06;;;3.88;79.91
39823;BME280;25499;53.958;10.970;2023-03-12T12:22:45;100531.03;;;3.87;81.01
39823;BME280;25499;53.958;10.970;2023-03-12T12:25:39;100506.94;;;3.84;79.92
39823;BME280;25499;53.958;10.970;2023-03-12T12:36:17;100520.78;;;3.89;79.94
39823;BME280;25499;53.958;10.970;2023-03-12T12:38:43;100524.44;;;4.02;80.23
39823;BME280;25499;53.958;10.970;2023-03-12T12:41:23;100516.81;;;4.06;79.90
39823;BME280;25499;53.958;10.970;2023-03-12T12:46:21;100474.59;;;3.98;77.09
39823;BME280;25499;53.958;10.970;2023-03-12T12:48:54;100470.31;;;4.00;76.62
39823;BME280;25499;53.958;10.970;2023-03-12T12:51:23;100484.72;;;3.89;77.36
39823;BME280;25499;53.958;10.970;2023-03-12T12:53:58;100491.78;;;3.99;77.22
39823;BME280;25499;53.958;10.970;2023-03-12T12:56:42;100474.59;;;3.98;76.61
39823;BME280;25499;53.958;10.970;2023-03-12T13:01:41;100395.44;;;3.89;72.96
39823;BME280;25499;53.958;10.970;2023-03-12T13:04:11;100377.41;;;3.88;71.82
39823;BME280;25499;53.958;10.970;2023-03-12T13:09:42;100381.81;;;3.95;71.05
39823;BME280;25499;53.958;10.970;2023-03-12T13:14:47;100367.63;;;3.68;70.54
39823;BME280;25499;53.958;10.970;2023-03-12T13:23:20;100459.66;;;2.99;75.46
39823;BME280;25499;53.958;10.970;2023-03-12T13:25:59;100467.56;;;3.07;77.17
39823;BME280;25499;53.958;10.970;2023-03-12T13:28:32;100461.56;;;3.08;77.59
39823;BME280;25499;53.958;10.970;2023-03-12T13:33:57;100438.19;;;2.97;77.18
39823;BME280;25499;53.958;10.970;2023-03-12T13:36:27;100452.13;;;3.07;77.71
39823;BME280;25499;53.958;10.970;2023-03-12T13:41:39;100445.91;;;2.97;77.42
39823;BME280;25499;53.958;10.970;2023-03-12T13:54:55;100463.59;;;2.84;79.00
39823;BME280;25499;53.958;10.970;2023-03-12T13:59:59;100460.31;;;2.91;79.87
39823;BME280;25499;53.958;10.970;2023-03-12T14:02:32;100453.44;;;2.90;79.78
39823;BME280;25499;53.958;10.970;2023-03-12T14:05:05;100459.25;;;2.81;79.80
39823;BME280;25499;53.958;10.970;2023-03-12T14:15:33;100446.78;;;2.61;82.55
39823;BME280;25499;53.958;10.970;2023-03-12T14:18:17;100436.81;;;2.74;83.27
39823;BME280;25499;53.958;10.970;2023-03-12T14:20:52;100430.06;;;2.79;82.79
39823;BME280;25499;53.958;10.970;2023-03-12T14:23:18;100424.09;;;2.82;82.46
39823;BME280;25499;53.958;10.970;2023-03-12T14:25:46;100416.34;;;2.80;82.19
39823;BME280;25499;53.958;10.970;2023-03-12T14:28:16;100400.16;;;2.83;81.07
39823;BME280;25499;53.958;10.970;2023-03-12T14:30:59;100395.03;;;2.84;80.77
39823;BME280;25499;53.958;10.970;2023-03-12T14:33:30;100383.78;;;2.79;80.11
39823;BME280;25499;53.958;10.970;2023-03-12T14:36:05;100384.75;;;2.84;80.07
39823;BME280;25499;53.958;10.970;2023-03-12T14:38:36;100374.56;;;2.87;80.46
39823;BME280;25499;53.958;10.970;2023-03-12T14:43:38;100379.06;;;2.97;80.34
39823;BME280;25499;53.958;10.970;2023-03-12T14:46:13;100364.47;;;2.96;80.21
39823;BME280;25499;53.958;10.970;2023-03-12T14:48:39;100362.59;;;2.89;79.77
39823;BME280;25499;53.958;10.970;2023-03-12T14:51:05;100355.78;;;2.91;79.42
39823;BME280;25499;53.958;10.970;2023-03-12T14:53:36;100349.88;;;2.95;79.41
39823;BME280;25499;53.958;10.970;2023-03-12T14:56:06;100339.56;;;2.94;79.03
39823;BME280;25499;53.958;10.970;2023-03-12T14:58:33;100348.91;;;2.90;79.69
39823;BME280;25499;53.958;10.970;2023-03-12T15:01:04;100336.09;;;2.93;79.92
39823;BME280;25499;53.958;10.970;2023-03-12T15:03:38;100345.38;;;2.85;79.99
39823;BME280;25499;53.958;10.970;2023-03-12T15:06:13;100318.28;;;2.60;80.04
39823;BME280;25499;53.958;10.970;2023-03-12T15:08:41;100326.75;;;2.57;80.92
39823;BME280;25499;53.958;10.970;2023-03-12T15:11:09;100341.22;;;2.52;81.56
39823;BME280;25499;53.958;10.970;2023-03-12T15:13:36;100348.28;;;2.63;82.39
39823;BME280;25499;53.958;10.970;2023-03-12T15:16:04;100348.38;;;2.66;83.32
39823;BME280;25499;53.958;10.970;2023-03-12T15:18:31;100368.22;;;2.73;84.21
39823;BME280;25499;53.958;10.970;2023-03-12T15:20:59;100364.50;;;2.58;84.71
39823;BME280;25499;53.958;10.970;2023-03-12T15:23:29;100367.72;;;2.50;85.69
39823;BME280;25499;53.958;10.970;2023-03-12T15:28:33;100360.31;;;2.27;87.44
39823;BME280;25499;53.958;10.970;2023-03-12T15:31:11;100364.75;;;2.33;88.92
39823;BME280;25499;53.958;10.970;2023-03-12T15:33:39;100391.06;;;2.24;89.68
39823;BME280;25499;53.958;10.970;2023-03-12T15:36:21;100368.38;;;2.06;90.45
39823;BME280;25499;53.958;10.970;2023-03-12T15:41:43;100381.13;;;2.03;93.68
39823;BME280;25499;53.958;10.970;2023-03-12T15:44:24;100378.34;;;1.94;94.47
39823;BME280;25499;53.958;10.970;2023-03-12T15:47:05;100380.09;;;1.96;95.77
39823;BME280;25499;53.958;10.970;2023-03-12T15:49:36;100385.22;;;1.96;96.48
39823;BME280;25499;53.958;10.970;2023-03-12T15:55:06;100360.88;;;1.80;98.75
39823;BME280;25499;53.958;10.970;2023-03-12T15:57:30;100366.09;;;1.83;99.97
39823;BME280;25499;53.958;10.970;2023-03-12T16:05:38;100373.09;;;1.57;100.00
39823;BME280;25499;53.958;10.970;2023-03-12T16:08:20;100373.88;;;1.55;100.00
39823;BME280;25499;53.958;10.970;2023-03-12T16:10:48;100350.91;;;1.59;100.00
39823;BME280;25499;53.958;10.970;2023-03-12T16:13:26;100356.97;;;1.61;100.00
39823;BME280;25499;53.958;10.970;2023-03-12T16:15:56;100369.56;;;1.54;100.00
39823;BME280;25499;53.958;10.970;2023-03-12T16:18:22;100366.44;;;1.64;100.00
39823;BME280;25499;53.958;10.970;2023-03-12T16:20:49;100362.09;;;1.63;100.00
39823;BME280;25499;53.958;10.970;2023-03-12T16:23:15;100358.09;;;1.41;100.00
39823;BME280;25499;53.958;10.970;2023-03-12T16:25:42;100364.03;;;1.38;100.00
39823;BME280;25499;53.958;10.970;2023-03-12T16:28:13;100355.38;;;1.35;100.00
39823;BME280;25499;53.958;10.970;2023-03-12T16:30:39;100350.94;;;1.29;100.00
39823;BME280;25499;53.958;10.970;2023-03-12T16:33:06;100360.00;;;1.16;100.00
39823;BME280;25499;53.958;10.970;2023-03-12T16:35:32;100345.50;;;1.18;100.00
39823;BME280;25499;53.958;10.970;2023-03-12T16:37:59;100348.06;;;1.18;100.00
39823;BME280;25499;53.958;10.970;2023-03-12T16:40:29;100331.50;;;1.07;100.00
39823;BME280;25499;53.958;10.970;2023-03-12T16:42:57;100343.38;;;1.03;100.00
39823;BME280;25499;53.958;10.970;2023-03-12T16:45:26;100343.31;;;1.00;100.00
39823;BME280;25499;53.958;10.970;2023-03-12T16:47:57;100330.31;;;0.94;100.00
39823;BME280;25499;53.958;10.970;2023-03-12T16:50:23;100329.66;;;1.01;100.00
39823;BME280;25499;53.958;10.970;2023-03-12T16:52:49;100328.84;;;1.02;100.00
39823;BME280;25499;53.958;10.970;2023-03-12T16:55:17;100314.31;;;1.03;100.00
39823;BME280;25499;53.958;10.970;2023-03-12T16:57:51;100311.56;;;0.97;100.00
39823;BME280;25499;53.958;10.970;2023-03-12T17:00:22;100318.91;;;0.84;100.00
39823;BME280;25499;53.958;10.970;2023-03-12T17:02:50;100321.53;;;0.86;100.00
39823;BME280;25499;53.958;10.970;2023-03-12T17:05:19;100316.88;;;0.72;100.00
39823;BME280;25499;53.958;10.970;2023-03-12T17:07:45;100311.09;;;0.80;100.00
39823;BME280;25499;53.958;10.970;2023-03-12T17:10:13;100315.31;;;0.78;100.00
39823;BME280;25499;53.958;10.970;2023-03-12T17:12:39;100322.19;;;0.79;100.00
39823;BME280;25499;53.958;10.970;2023-03-12T17:15:34;100316.09;;;0.75;100.00
39823;BME280;25499;53.958;10.970;2023-03-12T17:17:59;100311.78;;;0.74;100.00
39823;BME280;25499;53.958;10.970;2023-03-12T17:20:28;100310.03;;;0.71;100.00
39823;BME280;25499;53.958;10.970;2023-03-12T17:23:01;100309.22;;;0.74;100.00
39823;BME280;25499;53.958;10.970;2023-03-12T17:25:28;100302.44;;;0.76;100.00
39823;BME280;25499;53.958;10.970;2023-03-12T17:27:54;100303.25;;;0.73;100.00
39823;BME280;25499;53.958;10.970;2023-03-12T17:30:23;100311.06;;;0.78;100.00
39823;BME280;25499;53.958;10.970;2023-03-12T17:32:50;100304.09;;;0.74;100.00
39823;BME280;25499;53.958;10.970;2023-03-12T17:35:16;100304.97;;;0.74;100.00
39823;BME280;25499;53.958;10.970;2023-03-12T17:37:42;100301.59;;;0.76;100.00
39823;BME280;25499;53.958;10.970;2023-03-12T17:40:08;100285.25;;;0.72;100.00
39823;BME280;25499;53.958;10.970;2023-03-12T17:42:36;100297.16;;;0.70;100.00
39823;BME280;25499;53.958;10.970;2023-03-12T17:45:03;100308.47;;;0.77;100.00
39823;BME280;25499;53.958;10.970;2023-03-12T17:47:29;100305.97;;;0.80;100.00
39823;BME280;25499;53.958;10.970;2023-03-12T17:49:55;100305.91;;;0.77;100.00
39823;BME280;25499;53.958;10.970;2023-03-12T17:52:20;100312.75;;;0.78;100.00
39823;BME280;25499;53.958;10.970;2023-03-12T17:54:46;100306.84;;;0.80;100.00
39823;BME280;25499;53.958;10.970;2023-03-12T17:57:11;100300.97;;;0.84;100.00
39823;BME280;25499;53.958;10.970;2023-03-12T17:59:36;100296.66;;;0.82;100.00
39823;BME280;25499;53.958;10.970;2023-03-12T18:02:02;100296.66;;;0.82;100.00
39823;BME280;25499;53.958;10.970;2023-03-12T18:04:28;100292.34;;;0.81;100.00
39823;BME280;25499;53.958;10.970;2023-03-12T18:06:53;100289.03;;;0.85;100.00
39823;BME280;25499;53.958;10.970;2023-03-12T18:09:19;100296.00;;;0.89;100.00
39823;BME280;25499;53.958;10.970;2023-03-12T18:11:44;100290.63;;;0.81;100.00
39823;BME280;25499;53.958;10.970;2023-03-12T18:14:10;100273.84;;;0.91;100.00
39823;BME280;25499;53.958;10.970;2023-03-12T18:16:35;100282.38;;;0.91;100.00
39823;BME280;25499;53.958;10.970;2023-03-12T18:19:00;100286.00;;;0.98;100.00
39823;BME280;25499;53.958;10.970;2023-03-12T18:21:26;100285.94;;;0.97;100.00
39823;BME280;25499;53.958;10.970;2023-03-12T18:23:51;100291.13;;;0.98;100.00
39823;BME280;25499;53.958;10.970;2023-03-12T18:26:18;100292.06;;;1.02;100.00
39823;BME280;25499;53.958;10.970;2023-03-12T18:28:43;100287.88;;;1.04;100.00
39823;BME280;25499;53.958;10.970;2023-03-12T18:31:09;100288.94;;;1.12;100.00
39823;BME280;25499;53.958;10.970;2023-03-12T18:33:34;100286.34;;;1.10;100.00
39823;BME280;25499;53.958;10.970;2023-03-12T18:36:00;100287.84;;;1.02;100.00
39823;BME280;25499;53.958;10.970;2023-03-12T18:38:26;100272.59;;;1.08;100.00
39823;BME280;25499;53.958;10.970;2023-03-12T18:41:01;100268.50;;;1.15;100.00
39823;BME280;25499;53.958;10.970;2023-03-12T18:43:26;100275.25;;;1.11;100.00
39823;BME280;25499;53.958;10.970;2023-03-12T18:45:52;100267.69;;;1.16;100.00
39823;BME280;25499;53.958;10.970;2023-03-12T18:48:17;100266.91;;;1.19;100.00
39823;BME280;25499;53.958;10.970;2023-03-12T18:50:42;100269.44;;;1.17;100.00
39823;BME280;25499;53.958;10.970;2023-03-12T18:53:08;100265.91;;;1.14;100.00
39823;BME280;25499;53.958;10.970;2023-03-12T18:55:33;100265.31;;;1.24;100.00
39823;BME280;25499;53.958;10.970;2023-03-12T18:57:59;100277.41;;;1.28;100.00
39823;BME280;25499;53.958;10.970;2023-03-12T19:00:24;100272.28;;;1.28;100.00
39823;BME280;25499;53.958;10.970;2023-03-12T19:02:50;100259.66;;;1.36;100.00
39823;BME280;25499;53.958;10.970;2023-03-12T19:05:15;100254.47;;;1.33;100.00
39823;BME280;25499;53.958;10.970;2023-03-12T19:07:41;100258.78;;;1.35;100.00
39823;BME280;25499;53.958;10.970;2023-03-12T19:10:07;100264.78;;;1.34;100.00
39823;BME280;25499;53.958;10.970;2023-03-12T19:12:32;100262.44;;;1.43;100.00
39823;BME280;25499;53.958;10.970;2023-03-12T19:14:58;100255.72;;;1.48;100.00
39823;BME280;25499;53.958;10.970;2023-03-12T19:17:24;100258.38;;;1.52;100.00
39823;BME280;25499;53.958;10.970;2023-03-12T19:19:50;100261.88;;;1.55;100.00
39823;BME280;25499;53.958;10.970;2023-03-12T19:22:16;100256.06;;;1.62;100.00
39823;BME280;25499;53.958;10.970;2023-03-12T19:24:41;100252.69;;;1.63;100.00
39823;BME280;25499;53.958;10.970;2023-03-12T19:27:07;100250.06;;;1.62;100.00
39823;BME280;25499;53.958;10.970;2023-03-12T19:29:33;100245.19;;;1.73;100.00
39823;BME280;25499;53.958;10.970;2023-03-12T19:31:58;100239.28;;;1.75;100.00
39823;BME280;25499;53.958;10.970;2023-03-12T19:34:23;100252.03;;;1.72;100.00
39823;BME280;25499;53.958;10.970;2023-03-12T19:36:49;100256.34;;;1.73;100.00
39823;BME280;25499;53.958;10.970;2023-03-12T19:39:14;100252.31;;;1.84;100.00
39823;BME280;25499;53.958;10.970;2023-03-12T19:41:40;100253.31;;;1.90;100.00
39823;BME280;25499;53.958;10.970;2023-03-12T19:44:05;100253.47;;;1.96;100.00
39823;BME280;25499;53.958;10.970;2023-03-12T19:46:31;100257.91;;;2.03;100.00
39823;BME280;25499;53.958;10.970;2023-03-12T19:48:56;100249.34;;;2.02;100.00
39823;BME280;25499;53.958;10.970;2023-03-12T19:51:22;100264.97;;;2.13;100.00
39823;BME280;25499;53.958;10.970;2023-03-12T19:53:47;100257.28;;;2.13;100.00
39823;BME280;25499;53.958;10.970;2023-03-12T19:56:13;100266.03;;;2.21;100.00
39823;BME280;25499;53.958;10.970;2023-03-12T19:58:40;100255.94;;;2.29;100.00
39823;BME280;25499;53.958;10.970;2023-03-12T20:01:06;100255.19;;;2.35;100.00
39823;BME280;25499;53.958;10.970;2023-03-12T20:03:31;100265.44;;;2.33;100.00
39823;BME280;25499;53.958;10.970;2023-03-12T20:05:57;100267.19;;;2.36;100.00
39823;BME280;25499;53.958;10.970;2023-03-12T20:08:23;100252.56;;;2.32;100.00
39823;BME280;25499;53.958;10.970;2023-03-12T20:10:52;100262.97;;;2.38;100.00
39823;BME280;25499;53.958;10.970;2023-03-12T20:13:17;100259.84;;;2.51;100.00
39823;BME280;25499;53.958;10.970;2023-03-12T20:15:46;100263.09;;;2.44;100.00
39823;BME280;25499;53.958;10.970;2023-03-12T20:18:13;100277.53;;;2.39;100.00
39823;BME280;25499;53.958;10.970;2023-03-12T20:20:41;100264.91;;;2.48;100.00
39823;BME280;25499;53.958;10.970;2023-03-12T20:23:06;100266.91;;;2.61;100.00
39823;BME280;25499;53.958;10.970;2023-03-12T20:25:42;100254.19;;;2.68;100.00
39823;BME280;25499;53.958;10.970;2023-03-12T20:28:08;100273.13;;;2.73;100.00
39823;BME280;25499;53.958;10.970;2023-03-12T20:30:36;100274.06;;;2.76;100.00
39823;BME280;25499;53.958;10.970;2023-03-12T20:33:02;100279.22;;;2.78;100.00
39823;BME280;25499;53.958;10.970;2023-03-12T20:35:27;100284.50;;;2.84;100.00
39823;BME280;25499;53.958;10.970;2023-03-12T20:37:52;100281.16;;;2.88;100.00
39823;BME280;25499;53.958;10.970;2023-03-12T20:40:18;100288.28;;;3.02;100.00
39823;BME280;25499;53.958;10.970;2023-03-12T20:42:44;100286.56;;;3.01;100.00
39823;BME280;25499;53.958;10.970;2023-03-12T20:45:09;100303.78;;;3.05;100.00
39823;BME280;25499;53.958;10.970;2023-03-12T20:47:35;100270.53;;;3.15;100.00
39823;BME280;25499;53.958;10.970;2023-03-12T20:50:02;100276.59;;;3.19;100.00
39823;BME280;25499;53.958;10.970;2023-03-12T20:52:27;100275.09;;;3.29;100.00
39823;BME280;25499;53.958;10.970;2023-03-12T20:54:53;100278.53;;;3.31;100.00
39823;BME280;25499;53.958;10.970;2023-03-12T20:57:18;100281.13;;;3.29;100.00
39823;BME280;25499;53.958;10.970;2023-03-12T20:59:43;100284.66;;;3.36;100.00
39823;BME280;25499;53.958;10.970;2023-03-12T21:02:13;100280.31;;;3.33;100.00
39823;BME280;25499;53.958;10.970;2023-03-12T21:04:40;100283.09;;;3.44;100.00
39823;BME280;25499;53.958;10.970;2023-03-12T21:07:06;100276.28;;;3.48;100.00
39823;BME280;25499;53.958;10.970;2023-03-12T21:09:32;100270.28;;;3.47;100.00
39823;BME280;25499;53.958;10.970;2023-03-12T21:11:57;100267.84;;;3.55;100.00
